McKinney, TX (75070)

3:04 PM CST on March 01, 2015 (GMT -0600)
Skywatch McKinney | Change Station
CLOSE
Current Station
Personal Weather Station
Location: Mckinney, TX
Elevation: 750 ft
Nearby Weather Stations

Elev 750 ft 33.16 °N, 96.69 °W | Updated 10 seconds ago

Overcast
Overcast
35.7 °F
Feels Like 30 °F
N
7.3
Wind Variable Wind from North
Gusts 15.0 mph

Today
High -- | Low -- °F
--% Chance of Precip.
Yesterday
High -- | Low -- °F
Precip. -- in
6:55 AM 6:23 PM
Waxing Gibbous, 87% visible
Pressure 30.37 in
Visibility 8.0 miles
Clouds Overcast 500 ft
Windchill 30 °F
Dew Point 35 °F
Humidity 97%
Rainfall 0.40 in
Snow Depth Not available.
UV 0.7 out of 12
Pollen 6.50 out of 12
Air Quality Not available.
Flu Activity Not available.
METAR KTKI 012053Z 01010KT 8SM OVC005 03/02 A3032 RMK AO2 RAE1954B22E30SNB1954E22 CIG 004V009 SLP284 P0001 60003 T00280017 56012

More Conditions Fewer Conditions

Pressure 30.37 in
Visibility 8.0 miles
Clouds Overcast 500 ft
Windchill 30 °F
Dew Point 35 °F
Humidity 97%
Rainfall 0.40 in
Snow Depth Not available.
UV 0.7 out of 12
Pollen 6.50 out of 12
Air Quality Not available.
Flu Activity Not available.
METAR KTKI 012053Z 01010KT 8SM OVC005 03/02 A3032 RMK AO2 RAE1954B22E30SNB1954E22 CIG 004V009 SLP284 P0001 60003 T00280017 56012

More Conditions Fewer Conditions

Nowcast | as of 2:04 PM CST on March 1, 2015

Patches of light rain and areas of light drizzle will continue off and on through the afternoon. Rainfall will range for a trace to a few hundredths of inch before sunset. Otherwise...it will remain cloudy and damp with temperatures remaining in the mid 30s in the northwest to the mid 40s in the southeast. North winds of 10 to 15 mph will push wind chills into the mid to upper 20s northwest of a line from Sherman to dfw to Goldthwaite. Elsewhere...wind chills will be in the 30s.

×

10-Day Weather Forecast

Almanac

Astronomy

Mar. 01, 2015 Rise Set
Actual Time
Civil Twilight
Nautical Twilight
Astronomical Twilight
Moon
Length of Visible Light
Length of Day
Tomorrow will be .
, % of the Moon is Illuminated

Today's Extremes

State Highs State Lows

Community

WunderPhotos

Upload Photos

1,801,559 photos uploaded!

WunderBlogs® & News

Nearby

Air Quality

  Air Quality AQ Index Pollutant
Not available.

Snow Depth

Station Depth Elevation

Earthquake Activity

City Distance Mag. Time & Date
Minimum magnitude displayed is 2.5.

Coastal Water Temperatures

Place Temperature

Nearby Weather Stations